sensor_id;sensor_type;location;lat;lon;timestamp;temperature;humidity
22968;DHT22;11650;48.106;-1.696;2022-11-20T00:02:21;7.50;99.90
22968;DHT22;11650;48.106;-1.696;2022-11-20T00:04:47;7.50;99.90
22968;DHT22;11650;48.106;-1.696;2022-11-20T00:07:12;7.50;99.90
22968;DHT22;11650;48.106;-1.696;2022-11-20T00:09:38;7.50;99.90
22968;DHT22;11650;48.106;-1.696;2022-11-20T00:12:04;7.50;99.90
22968;DHT22;11650;48.106;-1.696;2022-11-20T00:14:29;7.50;99.90
22968;DHT22;11650;48.106;-1.696;2022-11-20T00:16:55;7.60;99.90
22968;DHT22;11650;48.106;-1.696;2022-11-20T00:19:21;7.50;99.90
22968;DHT22;11650;48.106;-1.696;2022-11-20T00:21:46;7.50;99.90
22968;DHT22;11650;48.106;-1.696;2022-11-20T00:24:12;7.60;99.90
22968;DHT22;11650;48.106;-1.696;2022-11-20T00:26:38;7.50;99.90
22968;DHT22;11650;48.106;-1.696;2022-11-20T00:29:04;7.50;99.90
22968;DHT22;11650;48.106;-1.696;2022-11-20T00:31:30;7.50;99.90
22968;DHT22;11650;48.106;-1.696;2022-11-20T00:33:56;7.60;99.90
22968;DHT22;11650;48.106;-1.696;2022-11-20T00:36:24;7.60;99.90
22968;DHT22;11650;48.106;-1.696;2022-11-20T00:38:55;7.60;99.90
22968;DHT22;11650;48.106;-1.696;2022-11-20T00:41:21;7.70;99.90
22968;DHT22;11650;48.106;-1.696;2022-11-20T00:43:47;7.70;99.90
22968;DHT22;11650;48.106;-1.696;2022-11-20T00:46:15;7.70;99.90
22968;DHT22;11650;48.106;-1.696;2022-11-20T00:48:41;7.70;99.90
22968;DHT22;11650;48.106;-1.696;2022-11-20T00:51:07;7.70;99.90
22968;DHT22;11650;48.106;-1.696;2022-11-20T00:53:33;7.80;99.90
22968;DHT22;11650;48.106;-1.696;2022-11-20T00:56:04;7.80;99.90
22968;DHT22;11650;48.106;-1.696;2022-11-20T00:58:34;7.80;99.90
22968;DHT22;11650;48.106;-1.696;2022-11-20T01:01:23;7.80;99.90
22968;DHT22;11650;48.106;-1.696;2022-11-20T01:03:51;7.80;99.90
22968;DHT22;11650;48.106;-1.696;2022-11-20T01:08:46;7.90;99.90
22968;DHT22;11650;48.106;-1.696;2022-11-20T01:11:16;7.90;99.90
22968;DHT22;11650;48.106;-1.696;2022-11-20T01:13:42;8.00;99.90
22968;DHT22;11650;48.106;-1.696;2022-11-20T01:16:09;8.00;99.90
22968;DHT22;11650;48.106;-1.696;2022-11-20T01:18:36;8.00;99.90
22968;DHT22;11650;48.106;-1.696;2022-11-20T01:21:14;8.00;99.90
22968;DHT22;11650;48.106;-1.696;2022-11-20T01:23:41;8.00;99.90
22968;DHT22;11650;48.106;-1.696;2022-11-20T01:26:10;8.00;99.90
22968;DHT22;11650;48.106;-1.696;2022-11-20T01:28:37;8.00;99.90
22968;DHT22;11650;48.106;-1.696;2022-11-20T01:31:15;8.00;99.90
22968;DHT22;11650;48.106;-1.696;2022-11-20T01:33:42;8.00;99.90
22968;DHT22;11650;48.106;-1.696;2022-11-20T01:36:09;8.00;99.90
22968;DHT22;11650;48.106;-1.696;2022-11-20T01:38:35;7.90;99.90
22968;DHT22;11650;48.106;-1.696;2022-11-20T01:41:01;8.00;99.90
22968;DHT22;11650;48.106;-1.696;2022-11-20T01:43:27;8.00;99.90
22968;DHT22;11650;48.106;-1.696;2022-11-20T01:46:04;8.00;99.90
22968;DHT22;11650;48.106;-1.696;2022-11-20T01:49:34;8.00;99.90
22968;DHT22;11650;48.106;-1.696;2022-11-20T01:51:44;8.00;99.90
22968;DHT22;11650;48.106;-1.696;2022-11-20T01:54:17;8.10;99.90
22968;DHT22;11650;48.106;-1.696;2022-11-20T01:56:46;8.00;99.90
22968;DHT22;11650;48.106;-1.696;2022-11-20T01:59:14;8.10;99.90
22968;DHT22;11650;48.106;-1.696;2022-11-20T02:01:41;8.10;99.90
22968;DHT22;11650;48.106;-1.696;2022-11-20T02:04:07;8.00;99.90
22968;DHT22;11650;48.106;-1.696;2022-11-20T02:06:47;8.10;99.90
22968;DHT22;11650;48.106;-1.696;2022-11-20T02:09:14;8.10;99.90
22968;DHT22;11650;48.106;-1.696;2022-11-20T02:11:40;8.10;99.90
22968;DHT22;11650;48.106;-1.696;2022-11-20T02:14:06;8.10;99.90
22968;DHT22;11650;48.106;-1.696;2022-11-20T02:16:37;8.10;99.90
22968;DHT22;11650;48.106;-1.696;2022-11-20T02:19:08;8.10;99.90
22968;DHT22;11650;48.106;-1.696;2022-11-20T02:24:18;8.10;99.90
22968;DHT22;11650;48.106;-1.696;2022-11-20T02:29:45;8.10;99.90
22968;DHT22;11650;48.106;-1.696;2022-11-20T02:32:41;8.10;99.90
22968;DHT22;11650;48.106;-1.696;2022-11-20T02:35:09;8.20;99.90
22968;DHT22;11650;48.106;-1.696;2022-11-20T02:37:38;8.20;99.90
22968;DHT22;11650;48.106;-1.696;2022-11-20T02:40:04;8.20;99.90
22968;DHT22;11650;48.106;-1.696;2022-11-20T02:42:30;8.20;99.90
22968;DHT22;11650;48.106;-1.696;2022-11-20T02:44:56;8.20;99.90
22968;DHT22;11650;48.106;-1.696;2022-11-20T02:47:21;8.20;99.90
22968;DHT22;11650;48.106;-1.696;2022-11-20T02:49:47;8.20;99.90
22968;DHT22;11650;48.106;-1.696;2022-11-20T02:52:12;8.20;99.90
22968;DHT22;11650;48.106;-1.696;2022-11-20T02:54:38;8.30;99.90
22968;DHT22;11650;48.106;-1.696;2022-11-20T02:57:03;8.30;99.90
22968;DHT22;11650;48.106;-1.696;2022-11-20T02:59:29;8.30;99.90
22968;DHT22;11650;48.106;-1.696;2022-11-20T03:01:54;8.30;99.90
22968;DHT22;11650;48.106;-1.696;2022-11-20T03:04:20;8.30;99.90
22968;DHT22;11650;48.106;-1.696;2022-11-20T03:06:46;8.20;99.90
22968;DHT22;11650;48.106;-1.696;2022-11-20T03:09:11;8.20;99.90
22968;DHT22;11650;48.106;-1.696;2022-11-20T03:11:37;8.10;99.90
22968;DHT22;11650;48.106;-1.696;2022-11-20T03:14:06;8.10;99.90
22968;DHT22;11650;48.106;-1.696;2022-11-20T03:16:32;8.10;99.90
22968;DHT22;11650;48.106;-1.696;2022-11-20T03:18:58;8.10;99.90
22968;DHT22;11650;48.106;-1.696;2022-11-20T03:21:23;8.10;99.90
22968;DHT22;11650;48.106;-1.696;2022-11-20T03:23:49;8.10;99.90
22968;DHT22;11650;48.106;-1.696;2022-11-20T03:26:21;8.10;99.90
22968;DHT22;11650;48.106;-1.696;2022-11-20T03:28:55;8.10;99.90
22968;DHT22;11650;48.106;-1.696;2022-11-20T03:31:29;8.10;99.90
22968;DHT22;11650;48.106;-1.696;2022-11-20T03:33:56;8.10;99.90
22968;DHT22;11650;48.106;-1.696;2022-11-20T03:36:22;8.10;99.90
22968;DHT22;11650;48.106;-1.696;2022-11-20T03:38:48;8.10;99.90
22968;DHT22;11650;48.106;-1.696;2022-11-20T03:41:23;8.10;99.90
22968;DHT22;11650;48.106;-1.696;2022-11-20T03:43:53;8.10;99.90
22968;DHT22;11650;48.106;-1.696;2022-11-20T03:46:20;8.10;99.90
22968;DHT22;11650;48.106;-1.696;2022-11-20T03:48:46;8.20;99.90
22968;DHT22;11650;48.106;-1.696;2022-11-20T03:51:13;8.20;99.90
22968;DHT22;11650;48.106;-1.696;2022-11-20T03:53:43;8.20;99.90
22968;DHT22;11650;48.106;-1.696;2022-11-20T03:56:10;8.20;99.90
22968;DHT22;11650;48.106;-1.696;2022-11-20T03:58:37;8.30;99.90
22968;DHT22;11650;48.106;-1.696;2022-11-20T04:01:11;8.30;99.90
22968;DHT22;11650;48.106;-1.696;2022-11-20T04:03:37;8.30;99.90
22968;DHT22;11650;48.106;-1.696;2022-11-20T04:06:05;8.30;99.90
22968;DHT22;11650;48.106;-1.696;2022-11-20T04:08:31;8.30;99.90
22968;DHT22;11650;48.106;-1.696;2022-11-20T04:11:14;8.30;99.90
22968;DHT22;11650;48.106;-1.696;2022-11-20T04:13:41;8.40;99.90
22968;DHT22;11650;48.106;-1.696;2022-11-20T04:16:08;8.40;99.90
22968;DHT22;11650;48.106;-1.696;2022-11-20T04:18:35;8.40;99.90
22968;DHT22;11650;48.106;-1.696;2022-11-20T04:21:01;8.50;99.90
22968;DHT22;11650;48.106;-1.696;2022-11-20T04:23:27;8.50;99.90
22968;DHT22;11650;48.106;-1.696;2022-11-20T04:25:53;8.50;99.90
22968;DHT22;11650;48.106;-1.696;2022-11-20T04:28:19;8.50;99.90
22968;DHT22;11650;48.106;-1.696;2022-11-20T04:30:45;8.50;99.90
22968;DHT22;11650;48.106;-1.696;2022-11-20T04:33:11;8.50;99.90
22968;DHT22;11650;48.106;-1.696;2022-11-20T04:35:37;8.50;99.90
22968;DHT22;11650;48.106;-1.696;2022-11-20T04:38:03;8.60;99.90
22968;DHT22;11650;48.106;-1.696;2022-11-20T04:40:30;8.60;99.90
22968;DHT22;11650;48.106;-1.696;2022-11-20T04:42:56;8.60;99.90
22968;DHT22;11650;48.106;-1.696;2022-11-20T04:45:22;8.60;99.90
22968;DHT22;11650;48.106;-1.696;2022-11-20T04:47:48;8.50;99.90
22968;DHT22;11650;48.106;-1.696;2022-11-20T04:50:14;8.60;99.90
22968;DHT22;11650;48.106;-1.696;2022-11-20T04:52:40;8.50;99.90
22968;DHT22;11650;48.106;-1.696;2022-11-20T04:55:06;8.50;99.90
22968;DHT22;11650;48.106;-1.696;2022-11-20T04:57:32;8.60;99.90
22968;DHT22;11650;48.106;-1.696;2022-11-20T04:59:57;8.60;99.90
22968;DHT22;11650;48.106;-1.696;2022-11-20T05:02:23;8.50;99.90
22968;DHT22;11650;48.106;-1.696;2022-11-20T05:04:49;8.50;99.90
22968;DHT22;11650;48.106;-1.696;2022-11-20T05:07:14;8.60;99.90
22968;DHT22;11650;48.106;-1.696;2022-11-20T05:09:40;8.60;99.90
22968;DHT22;11650;48.106;-1.696;2022-11-20T05:12:07;8.60;99.90
22968;DHT22;11650;48.106;-1.696;2022-11-20T05:14:33;8.60;99.90
22968;DHT22;11650;48.106;-1.696;2022-11-20T05:16:59;8.60;99.90
22968;DHT22;11650;48.106;-1.696;2022-11-20T05:19:25;8.60;99.90
22968;DHT22;11650;48.106;-1.696;2022-11-20T05:21:50;8.60;99.90
22968;DHT22;11650;48.106;-1.696;2022-11-20T05:24:16;8.60;99.90
22968;DHT22;11650;48.106;-1.696;2022-11-20T05:26:42;8.60;99.90
22968;DHT22;11650;48.106;-1.696;2022-11-20T05:29:10;8.70;99.90
22968;DHT22;11650;48.106;-1.696;2022-11-20T05:31:38;8.70;99.90
22968;DHT22;11650;48.106;-1.696;2022-11-20T05:34:03;8.70;99.90
22968;DHT22;11650;48.106;-1.696;2022-11-20T05:36:30;8.70;99.90
22968;DHT22;11650;48.106;-1.696;2022-11-20T05:38:55;8.70;99.90
22968;DHT22;11650;48.106;-1.696;2022-11-20T05:41:21;8.70;99.90
22968;DHT22;11650;48.106;-1.696;2022-11-20T05:43:47;8.70;99.90
22968;DHT22;11650;48.106;-1.696;2022-11-20T05:46:15;8.70;99.90
22968;DHT22;11650;48.106;-1.696;2022-11-20T05:48:42;8.80;99.90
22968;DHT22;11650;48.106;-1.696;2022-11-20T05:51:10;8.80;99.90
22968;DHT22;11650;48.106;-1.696;2022-11-20T05:53:37;8.80;99.90
22968;DHT22;11650;48.106;-1.696;2022-11-20T05:56:09;8.90;99.90
22968;DHT22;11650;48.106;-1.696;2022-11-20T05:58:35;8.80;99.90
22968;DHT22;11650;48.106;-1.696;2022-11-20T06:01:13;8.80;99.90
22968;DHT22;11650;48.106;-1.696;2022-11-20T06:03:40;8.90;99.90
22968;DHT22;11650;48.106;-1.696;2022-11-20T06:06:06;8.90;99.90
22968;DHT22;11650;48.106;-1.696;2022-11-20T06:08:32;8.90;99.90
22968;DHT22;11650;48.106;-1.696;2022-11-20T06:10:58;8.90;99.90
22968;DHT22;11650;48.106;-1.696;2022-11-20T06:13:27;8.90;99.90
22968;DHT22;11650;48.106;-1.696;2022-11-20T06:15:53;8.90;99.90
22968;DHT22;11650;48.106;-1.696;2022-11-20T06:18:20;9.00;99.90
22968;DHT22;11650;48.106;-1.696;2022-11-20T06:20:46;9.00;99.90
22968;DHT22;11650;48.106;-1.696;2022-11-20T06:23:12;9.00;99.90
22968;DHT22;11650;48.106;-1.696;2022-11-20T06:25:39;9.10;99.90
22968;DHT22;11650;48.106;-1.696;2022-11-20T06:28:05;9.00;99.90
22968;DHT22;11650;48.106;-1.696;2022-11-20T06:30:31;9.00;99.90
22968;DHT22;11650;48.106;-1.696;2022-11-20T06:32:57;9.00;99.90
22968;DHT22;11650;48.106;-1.696;2022-11-20T06:35:22;9.10;99.90
22968;DHT22;11650;48.106;-1.696;2022-11-20T06:37:48;9.10;99.90
22968;DHT22;11650;48.106;-1.696;2022-11-20T06:40:13;9.10;99.90
22968;DHT22;11650;48.106;-1.696;2022-11-20T06:42:39;9.10;99.90
22968;DHT22;11650;48.106;-1.696;2022-11-20T06:45:05;9.10;99.90
22968;DHT22;11650;48.106;-1.696;2022-11-20T06:47:31;9.10;99.90
22968;DHT22;11650;48.106;-1.696;2022-11-20T06:49:56;9.10;99.90
22968;DHT22;11650;48.106;-1.696;2022-11-20T06:52:22;9.10;99.90
22968;DHT22;11650;48.106;-1.696;2022-11-20T06:54:47;9.10;99.90
22968;DHT22;11650;48.106;-1.696;2022-11-20T06:57:13;9.00;99.90
22968;DHT22;11650;48.106;-1.696;2022-11-20T06:59:39;9.00;99.90
22968;DHT22;11650;48.106;-1.696;2022-11-20T07:02:04;9.00;99.90
22968;DHT22;11650;48.106;-1.696;2022-11-20T07:04:30;9.00;99.90
22968;DHT22;11650;48.106;-1.696;2022-11-20T07:06:56;9.00;99.90
22968;DHT22;11650;48.106;-1.696;2022-11-20T07:09:21;9.00;99.90
22968;DHT22;11650;48.106;-1.696;2022-11-20T07:11:47;9.00;99.90
22968;DHT22;11650;48.106;-1.696;2022-11-20T07:14:12;9.00;99.90
22968;DHT22;11650;48.106;-1.696;2022-11-20T07:16:38;9.00;99.90
22968;DHT22;11650;48.106;-1.696;2022-11-20T07:19:03;9.00;99.90
22968;DHT22;11650;48.106;-1.696;2022-11-20T07:21:29;9.00;99.90
22968;DHT22;11650;48.106;-1.696;2022-11-20T07:23:54;9.00;99.90
22968;DHT22;11650;48.106;-1.696;2022-11-20T07:26:20;9.00;99.90
22968;DHT22;11650;48.106;-1.696;2022-11-20T07:28:46;9.00;99.90
22968;DHT22;11650;48.106;-1.696;2022-11-20T07:31:11;9.00;99.90
22968;DHT22;11650;48.106;-1.696;2022-11-20T07:33:38;9.00;99.90
22968;DHT22;11650;48.106;-1.696;2022-11-20T07:36:04;9.00;99.90
22968;DHT22;11650;48.106;-1.696;2022-11-20T07:38:30;9.00;99.90
22968;DHT22;11650;48.106;-1.696;2022-11-20T07:40:56;9.00;99.90
22968;DHT22;11650;48.106;-1.696;2022-11-20T07:43:25;8.90;99.90
22968;DHT22;11650;48.106;-1.696;2022-11-20T07:45:51;8.90;99.90
22968;DHT22;11650;48.106;-1.696;2022-11-20T07:48:16;8.90;99.90
22968;DHT22;11650;48.106;-1.696;2022-11-20T07:50:42;8.90;99.90
22968;DHT22;11650;48.106;-1.696;2022-11-20T07:53:07;8.90;99.90
22968;DHT22;11650;48.106;-1.696;2022-11-20T07:55:33;8.90;99.90
22968;DHT22;11650;48.106;-1.696;2022-11-20T07:57:59;8.80;99.90
22968;DHT22;11650;48.106;-1.696;2022-11-20T08:00:26;8.90;99.90
22968;DHT22;11650;48.106;-1.696;2022-11-20T08:02:52;8.90;99.90
22968;DHT22;11650;48.106;-1.696;2022-11-20T08:05:18;8.80;99.90
22968;DHT22;11650;48.106;-1.696;2022-11-20T08:07:44;8.80;99.90
22968;DHT22;11650;48.106;-1.696;2022-11-20T08:10:12;8.80;99.90
22968;DHT22;11650;48.106;-1.696;2022-11-20T08:13:04;8.80;99.90
22968;DHT22;11650;48.106;-1.696;2022-11-20T08:15:50;8.80;99.90
22968;DHT22;11650;48.106;-1.696;2022-11-20T08:18:16;8.80;99.90
22968;DHT22;11650;48.106;-1.696;2022-11-20T08:20:42;8.80;99.90
22968;DHT22;11650;48.106;-1.696;2022-11-20T08:23:08;8.80;99.90
22968;DHT22;11650;48.106;-1.696;2022-11-20T08:25:35;8.90;99.90
22968;DHT22;11650;48.106;-1.696;2022-11-20T08:28:03;9.00;99.90
22968;DHT22;11650;48.106;-1.696;2022-11-20T08:30:29;9.00;99.90
22968;DHT22;11650;48.106;-1.696;2022-11-20T08:32:59;9.10;99.90
22968;DHT22;11650;48.106;-1.696;2022-11-20T08:35:26;9.20;99.90
22968;DHT22;11650;48.106;-1.696;2022-11-20T08:37:51;9.30;99.90
22968;DHT22;11650;48.106;-1.696;2022-11-20T08:40:17;9.30;99.90
22968;DHT22;11650;48.106;-1.696;2022-11-20T08:42:50;9.40;99.90
22968;DHT22;11650;48.106;-1.696;2022-11-20T08:45:17;9.50;99.90
22968;DHT22;11650;48.106;-1.696;2022-11-20T08:47:43;9.50;99.90
22968;DHT22;11650;48.106;-1.696;2022-11-20T08:50:10;9.50;99.90
22968;DHT22;11650;48.106;-1.696;2022-11-20T08:52:36;9.60;99.90
22968;DHT22;11650;48.106;-1.696;2022-11-20T08:55:02;9.60;99.90
22968;DHT22;11650;48.106;-1.696;2022-11-20T08:57:34;9.60;99.90
22968;DHT22;11650;48.106;-1.696;2022-11-20T08:59:59;9.70;99.90
22968;DHT22;11650;48.106;-1.696;2022-11-20T09:02:25;9.70;99.90
22968;DHT22;11650;48.106;-1.696;2022-11-20T09:04:51;9.70;99.90
22968;DHT22;11650;48.106;-1.696;2022-11-20T09:07:16;9.70;99.90
22968;DHT22;11650;48.106;-1.696;2022-11-20T09:09:42;9.80;99.90
22968;DHT22;11650;48.106;-1.696;2022-11-20T09:12:08;9.80;99.90
22968;DHT22;11650;48.106;-1.696;2022-11-20T09:14:33;9.90;99.90
22968;DHT22;11650;48.106;-1.696;2022-11-20T09:16:59;9.90;99.90
22968;DHT22;11650;48.106;-1.696;2022-11-20T09:19:25;10.00;99.90
22968;DHT22;11650;48.106;-1.696;2022-11-20T09:21:51;10.00;99.90
22968;DHT22;11650;48.106;-1.696;2022-11-20T09:24:17;10.00;99.90
22968;DHT22;11650;48.106;-1.696;2022-11-20T09:26:43;10.10;99.90
22968;DHT22;11650;48.106;-1.696;2022-11-20T09:29:08;10.20;99.90
22968;DHT22;11650;48.106;-1.696;2022-11-20T09:31:34;10.20;99.90
22968;DHT22;11650;48.106;-1.696;2022-11-20T09:34:00;10.30;99.90
22968;DHT22;11650;48.106;-1.696;2022-11-20T09:36:25;10.40;99.90
22968;DHT22;11650;48.106;-1.696;2022-11-20T09:38:51;10.40;99.90
22968;DHT22;11650;48.106;-1.696;2022-11-20T09:54:35;10.80;99.90
22968;DHT22;11650;48.106;-1.696;2022-11-20T09:57:10;10.90;99.90
22968;DHT22;11650;48.106;-1.696;2022-11-20T09:59:45;11.10;99.90
22968;DHT22;11650;48.106;-1.696;2022-11-20T10:05:20;11.20;99.90
22968;DHT22;11650;48.106;-1.696;2022-11-20T10:07:53;11.20;99.90
22968;DHT22;11650;48.106;-1.696;2022-11-20T10:26:58;11.40;99.90
22968;DHT22;11650;48.106;-1.696;2022-11-20T10:29:38;11.50;99.90
22968;DHT22;11650;48.106;-1.696;2022-11-20T10:34:51;11.70;99.90
22968;DHT22;11650;48.106;-1.696;2022-11-20T10:37:28;11.80;99.90
22968;DHT22;11650;48.106;-1.696;2022-11-20T10:43:01;11.90;99.90
22968;DHT22;11650;48.106;-1.696;2022-11-20T10:50:34;11.90;99.90
22968;DHT22;11650;48.106;-1.696;2022-11-20T10:55:54;11.80;99.90
22968;DHT22;11650;48.106;-1.696;2022-11-20T10:59:11;11.80;99.90
22968;DHT22;11650;48.106;-1.696;2022-11-20T11:01:17;11.90;99.90
22968;DHT22;11650;48.106;-1.696;2022-11-20T11:03:43;11.90;99.90
22968;DHT22;11650;48.106;-1.696;2022-11-20T11:06:29;12.00;99.90
22968;DHT22;11650;48.106;-1.696;2022-11-20T11:09:02;12.10;99.90
22968;DHT22;11650;48.106;-1.696;2022-11-20T11:11:31;12.00;99.90
22968;DHT22;11650;48.106;-1.696;2022-11-20T11:16:34;12.20;99.90
22968;DHT22;11650;48.106;-1.696;2022-11-20T11:19:12;12.40;99.90
22968;DHT22;11650;48.106;-1.696;2022-11-20T11:21:38;12.50;99.90
22968;DHT22;11650;48.106;-1.696;2022-11-20T11:24:37;12.80;99.90
22968;DHT22;11650;48.106;-1.696;2022-11-20T11:27:12;12.60;99.90
22968;DHT22;11650;48.106;-1.696;2022-11-20T11:29:38;12.80;99.90
22968;DHT22;11650;48.106;-1.696;2022-11-20T11:32:10;12.80;99.90
22968;DHT22;11650;48.106;-1.696;2022-11-20T11:34:36;12.70;99.90
22968;DHT22;11650;48.106;-1.696;2022-11-20T11:37:02;12.50;99.90
22968;DHT22;11650;48.106;-1.696;2022-11-20T11:39:30;12.60;99.90
22968;DHT22;11650;48.106;-1.696;2022-11-20T11:41:58;12.60;99.90
22968;DHT22;11650;48.106;-1.696;2022-11-20T11:44:34;12.40;99.90
22968;DHT22;11650;48.106;-1.696;2022-11-20T11:47:25;12.60;99.90
22968;DHT22;11650;48.106;-1.696;2022-11-20T11:55:14;13.00;99.90
22968;DHT22;11650;48.106;-1.696;2022-11-20T12:00:51;13.30;99.90
22968;DHT22;11650;48.106;-1.696;2022-11-20T12:03:39;13.30;99.90
22968;DHT22;11650;48.106;-1.696;2022-11-20T12:06:16;13.20;99.90
22968;DHT22;11650;48.106;-1.696;2022-11-20T12:08:59;13.30;99.90
22968;DHT22;11650;48.106;-1.696;2022-11-20T12:11:48;13.80;99.90
22968;DHT22;11650;48.106;-1.696;2022-11-20T12:14:34;14.50;99.90
22968;DHT22;11650;48.106;-1.696;2022-11-20T12:17:01;13.90;99.90
22968;DHT22;11650;48.106;-1.696;2022-11-20T12:19:29;14.30;99.90
22968;DHT22;11650;48.106;-1.696;2022-11-20T12:30:02;15.50;99.90
22968;DHT22;11650;48.106;-1.696;2022-11-20T12:44:02;15.50;99.90
22968;DHT22;11650;48.106;-1.696;2022-11-20T12:52:47;16.60;99.90
22968;DHT22;11650;48.106;-1.696;2022-11-20T13:03:44;15.10;99.90
22968;DHT22;11650;48.106;-1.696;2022-11-20T13:06:18;15.00;99.90
22968;DHT22;11650;48.106;-1.696;2022-11-20T13:08:55;14.40;99.90
22968;DHT22;11650;48.106;-1.696;2022-11-20T13:11:55;15.80;99.90
22968;DHT22;11650;48.106;-1.696;2022-11-20T13:14:50;16.50;99.90
22968;DHT22;11650;48.106;-1.696;2022-11-20T13:17:25;16.30;99.90
22968;DHT22;11650;48.106;-1.696;2022-11-20T13:19:55;16.40;99.90
22968;DHT22;11650;48.106;-1.696;2022-11-20T13:27:49;16.60;99.90
22968;DHT22;11650;48.106;-1.696;2022-11-20T13:30:21;17.00;99.90
22968;DHT22;11650;48.106;-1.696;2022-11-20T13:32:51;17.40;99.90
22968;DHT22;11650;48.106;-1.696;2022-11-20T13:38:08;17.30;99.90
22968;DHT22;11650;48.106;-1.696;2022-11-20T13:46:03;15.40;99.90
22968;DHT22;11650;48.106;-1.696;2022-11-20T13:48:34;15.10;99.90
22968;DHT22;11650;48.106;-1.696;2022-11-20T14:01:57;16.70;99.90
22968;DHT22;11650;48.106;-1.696;2022-11-20T14:04:30;17.30;99.90
22968;DHT22;11650;48.106;-1.696;2022-11-20T14:06:57;17.00;99.90
22968;DHT22;11650;48.106;-1.696;2022-11-20T14:09:32;17.00;99.90
22968;DHT22;11650;48.106;-1.696;2022-11-20T14:11:58;17.00;99.90
22968;DHT22;11650;48.106;-1.696;2022-11-20T14:14:26;16.60;99.90
22968;DHT22;11650;48.106;-1.696;2022-11-20T14:17:04;16.10;99.90
22968;DHT22;11650;48.106;-1.696;2022-11-20T14:19:30;15.90;99.90
22968;DHT22;11650;48.106;-1.696;2022-11-20T14:22:17;15.70;99.90
22968;DHT22;11650;48.106;-1.696;2022-11-20T14:25:00;15.60;99.90
22968;DHT22;11650;48.106;-1.696;2022-11-20T14:27:27;15.60;99.90
22968;DHT22;11650;48.106;-1.696;2022-11-20T14:29:52;15.70;99.90
22968;DHT22;11650;48.106;-1.696;2022-11-20T14:32:21;15.90;99.90
22968;DHT22;11650;48.106;-1.696;2022-11-20T14:34:49;16.30;99.90
22968;DHT22;11650;48.106;-1.696;2022-11-20T14:37:24;16.60;99.90
22968;DHT22;11650;48.106;-1.696;2022-11-20T14:39:56;16.50;99.90
22968;DHT22;11650;48.106;-1.696;2022-11-20T14:42:25;17.30;99.90
22968;DHT22;11650;48.106;-1.696;2022-11-20T14:44:55;16.90;99.90
22968;DHT22;11650;48.106;-1.696;2022-11-20T14:47:24;17.00;99.90
22968;DHT22;11650;48.106;-1.696;2022-11-20T14:49:52;16.20;99.90
22968;DHT22;11650;48.106;-1.696;2022-11-20T14:52:19;15.70;99.90
22968;DHT22;11650;48.106;-1.696;2022-11-20T14:54:53;15.50;99.90
22968;DHT22;11650;48.106;-1.696;2022-11-20T14:57:24;15.10;99.90
22968;DHT22;11650;48.106;-1.696;2022-11-20T14:59:51;14.90;99.90
22968;DHT22;11650;48.106;-1.696;2022-11-20T15:02:17;14.60;99.90
22968;DHT22;11650;48.106;-1.696;2022-11-20T15:04:56;14.50;99.90
22968;DHT22;11650;48.106;-1.696;2022-11-20T15:07:30;14.90;99.90
22968;DHT22;11650;48.106;-1.696;2022-11-20T15:10:06;14.90;99.90
22968;DHT22;11650;48.106;-1.696;2022-11-20T15:12:36;14.80;99.90
22968;DHT22;11650;48.106;-1.696;2022-11-20T15:15:03;14.20;99.90
22968;DHT22;11650;48.106;-1.696;2022-11-20T15:17:31;13.80;99.90
22968;DHT22;11650;48.106;-1.696;2022-11-20T15:19:57;13.50;99.90
22968;DHT22;11650;48.106;-1.696;2022-11-20T15:22:23;13.30;99.90
22968;DHT22;11650;48.106;-1.696;2022-11-20T15:24:48;13.20;99.90
22968;DHT22;11650;48.106;-1.696;2022-11-20T15:27:14;13.10;99.90
22968;DHT22;11650;48.106;-1.696;2022-11-20T15:29:40;12.80;99.90
22968;DHT22;11650;48.106;-1.696;2022-11-20T15:32:08;12.70;99.90
22968;DHT22;11650;48.106;-1.696;2022-11-20T15:34:33;12.60;99.90
22968;DHT22;11650;48.106;-1.696;2022-11-20T15:36:59;12.40;99.90
22968;DHT22;11650;48.106;-1.696;2022-11-20T15:39:25;12.40;99.90
22968;DHT22;11650;48.106;-1.696;2022-11-20T15:41:50;12.30;99.90
22968;DHT22;11650;48.106;-1.696;2022-11-20T15:44:16;12.20;99.90
22968;DHT22;11650;48.106;-1.696;2022-11-20T15:46:42;12.00;99.90
22968;DHT22;11650;48.106;-1.696;2022-11-20T15:49:14;12.00;99.90
22968;DHT22;11650;48.106;-1.696;2022-11-20T15:51:46;11.90;99.90
22968;DHT22;11650;48.106;-1.696;2022-11-20T15:54:20;11.90;99.90
22968;DHT22;11650;48.106;-1.696;2022-11-20T15:56:47;11.70;99.90
22968;DHT22;11650;48.106;-1.696;2022-11-20T15:59:13;11.70;99.90
22968;DHT22;11650;48.106;-1.696;2022-11-20T16:01:42;11.60;99.90
22968;DHT22;11650;48.106;-1.696;2022-11-20T16:04:12;11.60;99.90
22968;DHT22;11650;48.106;-1.696;2022-11-20T16:06:38;11.60;99.90
22968;DHT22;11650;48.106;-1.696;2022-11-20T16:09:04;11.50;99.90
22968;DHT22;11650;48.106;-1.696;2022-11-20T16:11:30;11.40;99.90
22968;DHT22;11650;48.106;-1.696;2022-11-20T16:13:55;11.50;99.90
22968;DHT22;11650;48.106;-1.696;2022-11-20T16:16:40;11.40;99.90
22968;DHT22;11650;48.106;-1.696;2022-11-20T16:19:10;11.30;99.90
22968;DHT22;11650;48.106;-1.696;2022-11-20T16:21:36;11.20;99.90
22968;DHT22;11650;48.106;-1.696;2022-11-20T16:24:07;11.20;99.90
22968;DHT22;11650;48.106;-1.696;2022-11-20T16:26:33;11.10;99.90
22968;DHT22;11650;48.106;-1.696;2022-11-20T16:29:00;11.10;99.90
22968;DHT22;11650;48.106;-1.696;2022-11-20T16:31:28;11.10;99.90
22968;DHT22;11650;48.106;-1.696;2022-11-20T16:33:58;10.90;99.90
22968;DHT22;11650;48.106;-1.696;2022-11-20T16:36:27;10.80;99.90
22968;DHT22;11650;48.106;-1.696;2022-11-20T16:38:55;10.80;99.90
22968;DHT22;11650;48.106;-1.696;2022-11-20T16:41:22;10.70;99.90
22968;DHT22;11650;48.106;-1.696;2022-11-20T16:43:55;10.70;99.90
22968;DHT22;11650;48.106;-1.696;2022-11-20T16:46:26;10.60;99.90
22968;DHT22;11650;48.106;-1.696;2022-11-20T16:48:57;10.50;99.90
22968;DHT22;11650;48.106;-1.696;2022-11-20T16:51:24;10.50;99.90
22968;DHT22;11650;48.106;-1.696;2022-11-20T16:53:50;10.40;99.90
22968;DHT22;11650;48.106;-1.696;2022-11-20T16:56:18;10.40;99.90
22968;DHT22;11650;48.106;-1.696;2022-11-20T16:58:47;10.30;99.90
22968;DHT22;11650;48.106;-1.696;2022-11-20T17:01:15;10.30;99.90
22968;DHT22;11650;48.106;-1.696;2022-11-20T17:03:42;10.30;99.90
22968;DHT22;11650;48.106;-1.696;2022-11-20T17:06:16;10.30;99.90
22968;DHT22;11650;48.106;-1.696;2022-11-20T17:08:42;10.20;99.90
22968;DHT22;11650;48.106;-1.696;2022-11-20T17:11:13;10.10;99.90
22968;DHT22;11650;48.106;-1.696;2022-11-20T17:13:39;10.10;99.90
22968;DHT22;11650;48.106;-1.696;2022-11-20T17:16:07;10.10;99.90
22968;DHT22;11650;48.106;-1.696;2022-11-20T17:18:34;10.00;99.90
22968;DHT22;11650;48.106;-1.696;2022-11-20T17:21:00;10.10;99.90
22968;DHT22;11650;48.106;-1.696;2022-11-20T17:23:30;10.00;99.90
22968;DHT22;11650;48.106;-1.696;2022-11-20T17:26:02;10.00;99.90
22968;DHT22;11650;48.106;-1.696;2022-11-20T17:28:29;10.00;99.90
22968;DHT22;11650;48.106;-1.696;2022-11-20T17:31:00;10.00;99.90
22968;DHT22;11650;48.106;-1.696;2022-11-20T17:33:26;10.00;99.90
22968;DHT22;11650;48.106;-1.696;2022-11-20T17:35:52;10.00;99.90
22968;DHT22;11650;48.106;-1.696;2022-11-20T17:38:17;10.00;99.90
22968;DHT22;11650;48.106;-1.696;2022-11-20T17:40:43;10.00;99.90